Time;durP1;ratioP1;P1;durP2;ratioP2;P2;SDS_P1;SDS_P2;PMS_P1;PMS_P2;Temp;Humidity;BMP_temperature;BMP_pressure;BME280_temperature;BME280_humidity;BME280_pressure;Samples;Min_cycle;Max_cycle;Signal;HPM_P1;HPM_P2
2022/02/18 00:00:56;;;;;;;4.70;2.55;;;;;;;8.76;46.21;93200.00;5005374;28;20033;-76
2022/02/18 00:03:22;;;;;;;4.80;2.53;;;;;;;8.84;46.67;93201.88;4998213;28;20710;-76
2022/02/18 00:05:48;;;;;;;5.43;2.60;;;;;;;8.76;46.40;93208.72;5001310;28;20255;-76
2022/02/18 00:08:14;;;;;;;2.90;2.08;;;;;;;8.73;46.45;93190.03;5002456;28;20042;-76
2022/02/18 00:10:40;;;;;;;4.15;2.53;;;;;;;8.78;46.32;93188.00;5000349;28;20030;-76
2022/02/18 00:13:06;;;;;;;4.25;2.80;;;;;;;8.80;45.29;93180.53;4999208;28;20025;-76
2022/02/18 00:15:32;;;;;;;2.75;2.05;;;;;;;8.83;44.94;93163.97;4994822;28;20042;-77
2022/02/18 00:17:57;;;;;;;4.25;2.15;;;;;;;8.95;44.01;93182.63;5001975;28;20430;-76
2022/02/18 00:20:23;;;;;;;2.50;1.60;;;;;;;8.76;43.76;93146.97;4998018;28;20042;-76
2022/02/18 00:22:48;;;;;;;2.28;1.58;;;;;;;8.86;43.22;93160.66;4997659;28;20045;-76
2022/02/18 00:25:13;;;;;;;2.60;1.45;;;;;;;8.96;42.85;93162.19;4999309;28;20022;-76
2022/02/18 00:27:40;;;;;;;4.22;1.20;;;;;;;8.72;42.36;93167.28;4995821;28;20359;-77
2022/02/18 00:30:08;;;;;;;4.53;1.65;;;;;;;8.90;41.96;93179.41;5002060;28;20037;-77
2022/02/18 00:32:34;;;;;;;1.83;1.17;;;;;;;8.84;42.33;93162.09;5016414;28;20552;-74
2022/02/18 00:35:00;;;;;;;2.35;1.30;;;;;;;8.90;42.36;93158.19;5002470;28;20042;-76
2022/02/18 00:37:27;;;;;;;3.50;1.40;;;;;;;8.80;42.66;93150.56;5006754;28;20055;-77
2022/02/18 00:39:53;;;;;;;3.97;2.00;;;;;;;8.64;42.42;93112.41;5006578;28;20229;-76
2022/02/18 00:42:19;;;;;;;2.67;1.42;;;;;;;8.87;42.64;93174.72;4999536;28;20041;-76
2022/02/18 00:44:44;;;;;;;3.92;1.52;;;;;;;8.90;42.69;93169.53;5003571;28;20044;-76
2022/02/18 00:47:10;;;;;;;5.88;1.90;;;;;;;9.03;42.72;93170.44;4999249;28;20594;-76
2022/02/18 00:49:37;;;;;;;3.28;1.60;;;;;;;9.23;42.36;93174.28;5003401;28;20031;-76
2022/02/18 00:52:03;;;;;;;3.85;1.73;;;;;;;9.18;41.98;93164.66;5004602;28;20031;-76
2022/02/18 00:54:28;;;;;;;5.32;1.48;;;;;;;9.10;41.80;93162.75;5019463;28;20054;-76
2022/02/18 00:56:54;;;;;;;3.28;1.40;;;;;;;9.06;42.05;93196.31;5008865;28;20037;-76
2022/02/18 00:59:20;;;;;;;3.13;1.73;;;;;;;8.91;42.44;93178.28;4996069;28;20171;-76
2022/02/18 01:01:45;;;;;;;2.05;1.40;;;;;;;9.24;42.10;93210.34;5001490;28;20045;-77
2022/02/18 01:04:11;;;;;;;2.53;1.40;;;;;;;9.37;42.04;93214.66;4997008;28;20121;-76
2022/02/18 01:06:37;;;;;;;1.92;1.83;;;;;;;9.38;41.21;93206.38;5000365;28;20046;-77
2022/02/18 01:09:03;;;;;;;1.98;1.60;;;;;;;9.43;41.34;93224.78;4998699;28;20045;-77
2022/02/18 01:11:28;;;;;;;2.50;1.63;;;;;;;9.41;41.74;93221.66;5001628;28;20058;-76
2022/02/18 01:13:53;;;;;;;2.45;1.55;;;;;;;9.43;41.69;93224.00;5002670;28;20298;-76
2022/02/18 01:16:19;;;;;;;4.15;1.55;;;;;;;9.53;41.64;93234.25;5019441;28;20578;-76
2022/02/18 01:18:44;;;;;;;2.40;1.30;;;;;;;9.52;41.55;93210.69;5001734;28;20139;-76
2022/02/18 01:21:10;;;;;;;3.78;1.55;;;;;;;9.32;42.09;93201.56;4995018;28;20041;-76
2022/02/18 01:23:35;;;;;;;2.13;1.70;;;;;;;9.42;41.94;93233.84;5005710;28;20037;-76
2022/02/18 01:26:02;;;;;;;2.83;1.80;;;;;;;9.31;42.00;93222.00;5014914;28;20053;-76
2022/02/18 01:28:28;;;;;;;4.80;1.60;;;;;;;9.27;42.06;93236.22;4996759;28;20026;-76
2022/02/18 01:30:53;;;;;;;2.67;1.63;;;;;;;9.13;42.15;93236.44;5010467;28;20032;-76
2022/02/18 01:33:19;;;;;;;3.40;1.70;;;;;;;9.04;42.36;93198.53;4995770;28;20053;-76
2022/02/18 01:35:45;;;;;;;3.22;1.80;;;;;;;9.26;42.04;93256.69;5004831;28;20442;-76
2022/02/18 01:38:10;;;;;;;3.67;1.60;;;;;;;9.02;42.36;93253.75;5012335;28;20048;-76
2022/02/18 01:40:35;;;;;;;2.47;1.65;;;;;;;9.11;42.63;93265.16;5004788;28;20021;-76
2022/02/18 01:43:01;;;;;;;2.40;1.75;;;;;;;9.24;42.64;93284.66;4992668;28;20451;-76
2022/02/18 01:45:27;;;;;;;3.22;2.08;;;;;;;8.94;43.47;93305.75;4998061;28;20040;-76
2022/02/18 01:47:53;;;;;;;9.13;3.40;;;;;;;8.53;46.05;93316.03;5001633;28;20033;-76
2022/02/18 01:50:19;;;;;;;6.15;3.80;;;;;;;8.13;47.56;93316.16;5001678;28;20140;-76
2022/02/18 01:52:51;;;;;;;8.50;4.82;;;;;;;8.31;47.33;93316.97;5000623;28;20046;-77
2022/02/18 01:55:19;;;;;;;4.93;3.20;;;;;;;8.26;47.92;93322.44;5003441;28;20033;-76
2022/02/18 01:57:48;;;;;;;6.35;3.30;;;;;;;8.77;46.64;93323.53;5002603;28;20033;-76
2022/02/18 02:00:18;;;;;;;8.10;3.10;;;;;;;9.09;45.87;93315.06;5000746;28;20046;-77
2022/02/18 02:02:45;;;;;;;6.93;3.83;;;;;;;9.34;45.42;93332.81;4996182;28;20033;-77
2022/02/18 02:05:11;;;;;;;8.75;3.25;;;;;;;9.27;45.11;93329.88;4997573;28;20858;-76
2022/02/18 02:07:41;;;;;;;7.05;4.07;;;;;;;9.33;44.48;93315.38;5003698;28;20026;-76
2022/02/18 02:10:14;;;;;;;8.10;3.45;;;;;;;9.46;44.79;93348.09;4991490;28;20024;-76
2022/02/18 02:12:50;;;;;;;4.38;2.92;;;;;;;9.55;44.36;93348.84;5001531;28;20048;-77
2022/02/18 02:15:17;;;;;;;6.05;3.58;;;;;;;9.43;44.39;93346.88;4997289;28;20044;-76
2022/02/18 02:17:44;;;;;;;3.47;2.63;;;;;;;9.10;44.86;93324.56;5000666;28;20120;-76
2022/02/18 02:20:10;;;;;;;4.72;2.78;;;;;;;8.99;44.89;93320.72;5000420;28;20409;-76
2022/02/18 02:22:36;;;;;;;5.43;2.40;;;;;;;8.88;45.06;93316.81;4996997;28;20021;-76
2022/02/18 02:25:03;;;;;;;5.00;2.92;;;;;;;8.87;44.77;93323.22;5002959;28;20033;-76
2022/02/18 02:27:30;;;;;;;4.53;3.92;;;;;;;8.96;44.77;93356.59;5001331;28;20095;-76
2022/02/18 02:29:55;;;;;;;3.47;2.40;;;;;;;8.69;45.25;93338.34;4998104;28;20033;-76
2022/02/18 02:32:21;;;;;;;5.43;2.53;;;;;;;8.68;44.90;93347.41;5001895;28;20049;-76
2022/02/18 02:34:46;;;;;;;3.08;1.77;;;;;;;8.45;45.15;93344.13;4999280;28;20531;-77
2022/02/18 02:37:12;;;;;;;3.70;2.03;;;;;;;8.43;45.18;93346.28;4998526;28;20037;-76
2022/02/18 02:39:38;;;;;;;5.28;2.35;;;;;;;8.48;45.26;93380.59;4999573;28;20049;-76
2022/02/18 02:42:05;;;;;;;5.60;2.65;;;;;;;8.34;45.40;93395.84;4997166;28;20038;-76
2022/02/18 02:44:31;;;;;;;5.13;2.75;;;;;;;8.18;46.21;93396.56;5003767;28;20037;-75
2022/02/18 02:46:56;;;;;;;6.63;2.70;;;;;;;7.78;46.88;93379.94;4995575;28;20033;-77
2022/02/18 02:49:22;;;;;;;8.23;3.40;;;;;;;7.78;47.51;93393.16;4999979;28;20028;-76
2022/02/18 02:51:47;;;;;;;3.83;2.67;;;;;;;7.69;47.59;93401.03;5000501;28;20045;-75
2022/02/18 02:54:13;;;;;;;5.40;2.30;;;;;;;7.65;48.41;93435.25;5001165;28;20266;-76
2022/02/18 02:56:39;;;;;;;4.53;2.53;;;;;;;7.47;48.63;93433.59;5013155;28;20034;-76
2022/02/18 02:59:04;;;;;;;6.22;2.80;;;;;;;7.25;49.34;93423.03;4998047;28;20116;-76
2022/02/18 03:01:30;;;;;;;4.68;2.55;;;;;;;6.20;50.10;93264.00;4994587;28;20038;-76
2022/02/18 03:03:55;;;;;;;7.78;2.95;;;;;;;7.30;50.20;93444.84;4999054;28;20486;-76
2022/02/18 03:06:21;;;;;;;3.78;2.78;;;;;;;7.44;50.44;93454.56;4999505;28;20077;-76
2022/02/18 03:08:46;;;;;;;3.05;1.83;;;;;;;7.44;51.05;93473.09;5007385;28;20045;-76
2022/02/18 03:11:15;;;;;;;9.02;2.63;;;;;;;7.51;51.27;93487.50;4998379;28;20062;-76
2022/02/18 03:13:48;;;;;;;2.80;2.35;;;;;;;7.63;51.31;93494.91;5002560;28;20440;-75
2022/02/18 03:16:15;;;;;;;6.72;2.72;;;;;;;7.38;52.58;93516.66;4999665;28;20030;-76
2022/02/18 03:18:40;;;;;;;3.45;2.72;;;;;;;6.86;53.51;93453.53;5006319;28;20589;-76
2022/02/18 03:21:06;;;;;;;3.88;2.47;;;;;;;7.34;53.95;93524.38;5003398;28;20033;-76
2022/02/18 03:23:33;;;;;;;5.18;2.45;;;;;;;6.84;55.93;93550.09;5006199;28;20124;-76
2022/02/18 03:25:58;;;;;;;3.25;2.20;;;;;;;6.54;57.96;93572.59;5001907;28;20075;-76
2022/02/18 03:28:23;;;;;;;2.92;1.83;;;;;;;6.20;59.96;93545.75;5001036;28;20579;-76
2022/02/18 03:30:49;;;;;;;3.78;2.38;;;;;;;5.92;62.07;93545.66;5012014;28;20047;-76
2022/02/18 03:33:14;;;;;;;6.10;2.55;;;;;;;6.15;63.09;93582.78;5003724;28;20536;-76
2022/02/18 03:35:43;;;;;;;2.85;1.98;;;;;;;6.10;63.92;93604.00;5003123;28;20038;-76
2022/02/18 03:38:09;;;;;;;3.83;1.88;;;;;;;6.08;64.27;93621.97;5002646;28;20072;-76
2022/02/18 03:40:35;;;;;;;2.55;2.17;;;;;;;5.91;65.36;93610.09;5006368;28;21008;-76
2022/02/18 03:43:00;;;;;;;5.32;2.10;;;;;;;5.68;65.74;93610.19;5009295;28;20109;-75
2022/02/18 03:45:26;;;;;;;3.35;2.20;;;;;;;5.64;67.35;93623.19;5004605;28;20362;-76
2022/02/18 03:47:52;;;;;;;4.63;2.50;;;;;;;5.91;66.40;93609.31;5002929;28;20050;-76
2022/02/18 03:50:17;;;;;;;9.57;3.42;;;;;;;6.09;65.56;93612.97;5020280;28;20033;-76
2022/02/18 03:52:43;;;;;;;3.13;2.10;;;;;;;5.96;65.08;93591.56;5004738;28;20024;-76
2022/02/18 03:55:08;;;;;;;6.85;2.33;;;;;;;6.21;65.02;93626.56;5002948;28;20026;-76
2022/02/18 03:57:34;;;;;;;4.15;2.55;;;;;;;6.23;64.77;93632.31;5005061;28;20284;-76
2022/02/18 03:59:59;;;;;;;5.53;2.40;;;;;;;5.78;65.02;93595.00;5002883;28;20134;-76
2022/02/18 04:02:25;;;;;;;6.68;1.85;;;;;;;5.92;65.34;93634.66;5003870;28;20738;-76
2022/02/18 04:04:50;;;;;;;4.10;2.42;;;;;;;5.75;65.65;93627.25;5000690;28;20044;-76
2022/02/18 04:07:16;;;;;;;2.88;1.52;;;;;;;5.56;66.09;93637.03;5006007;28;20029;-76
2022/02/18 04:09:41;;;;;;;1.77;1.58;;;;;;;5.34;66.43;93650.75;5000528;28;20054;-76
2022/02/18 04:12:06;;;;;;;1.35;1.23;;;;;;;4.98;67.43;93658.34;5003214;28;20040;-76
2022/02/18 04:14:32;;;;;;;3.88;1.33;;;;;;;4.84;67.61;93659.28;4996614;28;20115;-75
2022/02/18 04:16:57;;;;;;;1.25;1.15;;;;;;;4.68;68.13;93685.00;5006160;28;20314;-76
2022/02/18 04:19:23;;;;;;;3.42;1.42;;;;;;;4.59;68.07;93687.47;4997942;28;20040;-76
2022/02/18 04:21:48;;;;;;;4.47;1.58;;;;;;;4.50;68.39;93667.28;5006692;28;20040;-76
2022/02/18 04:24:14;;;;;;;9.57;1.40;;;;;;;4.59;66.28;93678.78;4996406;28;20329;-76
2022/02/18 04:26:39;;;;;;;1.27;1.17;;;;;;;4.50;65.12;93656.75;5006172;28;20048;-76
2022/02/18 04:29:05;;;;;;;1.92;1.38;;;;;;;4.49;64.75;93679.66;5001727;28;20036;-76
2022/02/18 04:31:30;;;;;;;1.88;1.23;;;;;;;4.17;63.82;93664.38;5003987;28;20131;-75
2022/02/18 04:33:56;;;;;;;2.00;1.25;;;;;;;4.36;64.44;93690.81;4999229;28;20064;-76
2022/02/18 04:36:21;;;;;;;7.63;3.05;;;;;;;4.40;63.61;93675.28;5005460;28;20408;-76
2022/02/18 04:38:46;;;;;;;4.15;2.30;;;;;;;4.41;63.21;93645.22;5002946;28;20042;-76
2022/02/18 04:41:12;;;;;;;1.58;1.48;;;;;;;4.38;61.41;93615.00;5004972;28;20547;-76
2022/02/18 04:43:37;;;;;;;2.20;1.55;;;;;;;4.60;60.57;93640.84;5002736;28;20034;-76
2022/02/18 04:46:03;;;;;;;1.85;1.75;;;;;;;4.43;59.83;93636.00;5006817;28;20063;-76
2022/02/18 04:48:28;;;;;;;4.22;2.42;;;;;;;4.28;59.51;93631.66;5002299;28;20043;-76
2022/02/18 04:50:54;;;;;;;2.35;1.85;;;;;;;4.33;58.49;93624.78;5001675;28;20605;-75
2022/02/18 04:53:19;;;;;;;1.38;1.10;;;;;;;4.27;58.70;93624.81;5000228;28;20249;-77
2022/02/18 04:55:44;;;;;;;1.30;1.15;;;;;;;4.30;58.77;93626.13;5004017;28;20041;-75
2022/02/18 04:58:10;;;;;;;3.13;1.05;;;;;;;4.29;57.22;93650.84;5007008;28;20327;-75
2022/02/18 05:00:36;;;;;;;1.52;1.30;;;;;;;4.28;56.65;93633.50;4998030;28;20042;-76
2022/02/18 05:03:01;;;;;;;1.35;1.25;;;;;;;4.22;56.45;93621.44;5001544;28;20037;-75
2022/02/18 05:05:26;;;;;;;1.00;1.00;;;;;;;4.39;55.88;93660.53;5001683;28;20049;-76
2022/02/18 05:07:52;;;;;;;1.92;1.70;;;;;;;4.33;55.16;93635.31;5002025;28;20074;-76
2022/02/18 05:10:17;;;;;;;2.83;2.10;;;;;;;4.35;54.75;93656.91;5000761;28;20030;-77
2022/02/18 05:12:42;;;;;;;2.50;1.35;;;;;;;4.52;52.54;93673.06;5001180;28;20542;-76
2022/02/18 05:15:08;;;;;;;3.50;2.35;;;;;;;4.55;51.62;93685.69;4997689;28;20530;-76
2022/02/18 05:17:33;;;;;;;2.83;1.92;;;;;;;4.27;51.31;93674.81;5006716;28;20034;-76
2022/02/18 05:19:59;;;;;;;2.67;1.88;;;;;;;4.39;50.38;93697.41;5002061;28;20261;-76
2022/02/18 05:22:24;;;;;;;4.93;3.10;;;;;;;4.33;50.52;93682.72;4999450;28;20256;-76
2022/02/18 05:24:49;;;;;;;5.07;3.05;;;;;;;4.42;49.86;93696.84;5000676;28;20053;-76
2022/02/18 05:27:15;;;;;;;12.00;5.50;;;;;;;4.45;49.30;93723.44;4999628;28;20051;-76
2022/02/18 05:29:41;;;;;;;2.97;2.22;;;;;;;4.43;48.48;93716.84;4999219;28;20054;-77
2022/02/18 05:32:06;;;;;;;3.90;2.97;;;;;;;4.27;47.66;93689.81;4999972;28;20210;-76
2022/02/18 05:34:32;;;;;;;1.85;1.60;;;;;;;4.12;47.25;93692.59;5003733;28;20527;-76
2022/02/18 05:36:57;;;;;;;4.38;2.38;;;;;;;4.12;46.90;93711.78;5006494;28;20040;-75
2022/02/18 05:39:23;;;;;;;3.78;2.70;;;;;;;4.15;46.95;93713.09;4998574;28;20524;-75
2022/02/18 05:41:50;;;;;;;1.67;1.48;;;;;;;4.08;45.68;93726.56;5001195;28;20442;-76
2022/02/18 05:44:16;;;;;;;4.22;2.42;;;;;;;3.94;46.89;93725.63;5000715;28;20048;-76
2022/02/18 05:46:41;;;;;;;4.22;2.72;;;;;;;3.94;46.59;93722.19;4997599;28;20029;-76
2022/02/18 05:49:07;;;;;;;2.88;2.00;;;;;;;4.08;46.85;93760.78;4997848;28;20032;-77
2022/02/18 05:51:33;;;;;;;2.53;1.92;;;;;;;3.93;46.41;93758.25;4996377;28;20995;-75
2022/02/18 05:53:59;;;;;;;1.98;1.52;;;;;;;3.85;47.21;93748.31;5001421;28;20049;-76
2022/02/18 05:56:24;;;;;;;3.67;2.88;;;;;;;3.89;46.68;93730.13;4998426;28;20119;-76
2022/02/18 05:58:50;;;;;;;2.53;1.13;;;;;;;3.87;46.20;93719.09;5003108;28;20496;-75
2022/02/18 06:01:16;;;;;;;1.40;1.30;;;;;;;4.13;46.13;93752.06;5008318;28;20035;-76
2022/02/18 06:03:41;;;;;;;3.58;2.50;;;;;;;4.11;46.96;93754.97;4994615;28;20069;-76
2022/02/18 06:06:07;;;;;;;4.70;1.33;;;;;;;4.23;45.15;93752.00;5007915;28;20118;-76
2022/02/18 06:08:32;;;;;;;2.92;1.83;;;;;;;4.34;44.92;93750.91;5005350;28;20038;-76
2022/02/18 06:10:58;;;;;;;1.38;1.00;;;;;;;4.28;44.45;93771.19;5002302;28;20541;-76
2022/02/18 06:13:23;;;;;;;1.15;1.05;;;;;;;4.36;44.47;93782.19;5000965;28;20088;-76
2022/02/18 06:15:48;;;;;;;3.47;1.02;;;;;;;4.30;44.14;93778.06;5000101;28;20140;-76
2022/02/18 06:18:14;;;;;;;0.93;0.93;;;;;;;4.10;44.02;93761.31;5006631;28;20037;-76
2022/02/18 06:20:39;;;;;;;1.35;1.10;;;;;;;4.19;44.28;93762.28;5003942;28;20498;-75
2022/02/18 06:23:05;;;;;;;3.05;1.05;;;;;;;4.16;43.51;93756.81;5002000;28;20130;-77
2022/02/18 06:25:30;;;;;;;1.38;1.27;;;;;;;4.44;43.24;93779.00;4993149;28;21058;-76
2022/02/18 06:28:13;;;;;;;2.40;1.20;;;;;;;4.48;42.57;93795.81;5002305;28;20045;-77
2022/02/18 06:30:40;;;;;;;1.98;1.20;;;;;;;4.50;42.97;93783.16;5005077;28;20281;-76
2022/02/18 06:33:09;;;;;;;1.27;1.00;;;;;;;4.70;43.16;93794.31;4996763;28;20065;-76
2022/02/18 06:35:37;;;;;;;1.65;0.90;;;;;;;4.67;42.54;93799.34;4999960;28;20038;-76
2022/02/18 06:38:03;;;;;;;0.93;0.90;;;;;;;4.53;41.96;93795.78;4999598;28;20635;-77
2022/02/18 06:40:28;;;;;;;0.95;0.88;;;;;;;4.51;41.77;93784.72;5007530;28;20025;-76
2022/02/18 06:42:54;;;;;;;1.38;1.05;;;;;;;4.62;42.16;93791.47;4994972;28;20499;-76
2022/02/18 06:45:19;;;;;;;1.02;0.93;;;;;;;4.49;42.03;93777.13;4996982;28;20333;-75
2022/02/18 06:47:46;;;;;;;0.80;0.80;;;;;;;4.25;42.53;93755.94;5002139;28;20393;-76
2022/02/18 06:50:13;;;;;;;1.65;0.90;;;;;;;4.38;41.80;93761.66;5003396;28;20068;-75
2022/02/18 06:52:39;;;;;;;0.88;0.88;;;;;;;4.53;41.95;93795.78;5000754;28;20190;-75
2022/02/18 06:55:06;;;;;;;1.30;1.08;;;;;;;4.42;42.15;93787.16;5001166;28;20021;-76
2022/02/18 06:57:31;;;;;;;1.08;0.98;;;;;;;4.37;41.93;93789.03;5003203;28;20528;-76
2022/02/18 06:59:57;;;;;;;2.90;0.85;;;;;;;4.47;42.19;93810.03;5005726;28;20588;-76
2022/02/18 07:02:22;;;;;;;1.20;1.10;;;;;;;4.57;42.43;93818.66;5006468;28;20044;-76
2022/02/18 07:04:47;;;;;;;2.08;1.00;;;;;;;4.56;42.79;93800.47;5003465;28;20641;-76
2022/02/18 07:07:13;;;;;;;2.95;1.60;;;;;;;4.73;42.52;93814.06;5010513;28;20034;-76
2022/02/18 07:09:38;;;;;;;1.52;1.42;;;;;;;4.81;42.81;93837.16;5001277;28;20038;-75
2022/02/18 07:12:04;;;;;;;1.33;0.95;;;;;;;4.81;42.37;93834.53;5003930;28;20678;-75
2022/02/18 07:14:29;;;;;;;1.98;1.48;;;;;;;4.79;42.47;93818.22;5009453;28;20048;-76
2022/02/18 07:16:55;;;;;;;2.25;1.20;;;;;;;4.90;42.24;93801.25;5007124;28;20084;-76
2022/02/18 07:19:20;;;;;;;2.42;1.23;;;;;;;4.79;42.62;93810.31;5003014;28;20088;-76
2022/02/18 07:21:46;;;;;;;1.30;1.20;;;;;;;4.76;42.48;93796.91;5005019;28;20457;-76
2022/02/18 07:24:12;;;;;;;2.53;1.40;;;;;;;4.95;41.78;93816.22;5006626;28;20247;-76
2022/02/18 07:26:38;;;;;;;2.22;1.30;;;;;;;4.88;42.75;93811.31;5004205;28;20045;-76
2022/02/18 07:29:05;;;;;;;1.88;1.10;;;;;;;4.99;42.54;93823.31;5006492;28;20037;-75
2022/02/18 07:31:30;;;;;;;1.48;1.40;;;;;;;4.63;43.55;93809.66;5006680;28;20031;-75
2022/02/18 07:33:56;;;;;;;1.27;1.23;;;;;;;4.75;43.54;93803.25;5004459;28;20404;-76
2022/02/18 07:36:21;;;;;;;2.28;1.30;;;;;;;4.44;42.86;93721.06;5005006;28;20613;-75
2022/02/18 07:38:47;;;;;;;1.08;0.98;;;;;;;5.00;42.79;93795.88;5003067;28;20081;-76
2022/02/18 07:41:12;;;;;;;3.72;1.00;;;;;;;5.06;43.12;93792.16;5004418;28;20033;-77
2022/02/18 07:43:38;;;;;;;2.70;0.90;;;;;;;4.99;42.59;93772.47;5003318;28;20065;-76
2022/02/18 07:46:03;;;;;;;1.40;1.27;;;;;;;5.13;42.91;93771.53;5005761;28;20021;-76
2022/02/18 07:48:29;;;;;;;2.58;1.23;;;;;;;5.49;41.69;93784.28;5004854;28;20519;-76
2022/02/18 07:50:54;;;;;;;1.67;1.10;;;;;;;5.21;41.47;93745.59;5004987;28;20133;-76
2022/02/18 07:53:20;;;;;;;8.38;1.33;;;;;;;5.36;40.88;93806.88;5013186;28;20042;-76
2022/02/18 07:55:45;;;;;;;2.03;0.98;;;;;;;5.25;40.68;93815.94;5001932;28;20060;-77
2022/02/18 07:58:11;;;;;;;1.10;1.00;;;;;;;5.29;40.75;93810.88;5017614;28;20024;-77
2022/02/18 08:00:38;;;;;;;0.80;0.80;;;;;;;5.52;40.68;93857.63;4996809;28;20041;-75
2022/02/18 08:03:03;;;;;;;3.70;1.08;;;;;;;5.61;40.70;93850.66;4995293;28;20046;-76
2022/02/18 08:05:29;;;;;;;1.73;1.10;;;;;;;5.58;40.83;93836.16;4999306;28;20045;-76
2022/02/18 08:07:56;;;;;;;1.35;1.02;;;;;;;5.54;40.14;93813.25;4995155;28;20040;-76
2022/02/18 08:10:22;;;;;;;1.70;1.00;;;;;;;5.72;40.47;93804.63;4993431;28;20591;-75
2022/02/18 08:12:48;;;;;;;1.33;1.02;;;;;;;5.94;39.77;93823.34;5000251;28;20048;-76
2022/02/18 08:15:13;;;;;;;1.30;1.00;;;;;;;6.13;40.10;93843.69;4990252;28;20042;-76
2022/02/18 08:17:39;;;;;;;3.42;1.63;;;;;;;6.17;40.40;93839.44;4997740;28;20420;-76
2022/02/18 08:20:06;;;;;;;3.20;1.02;;;;;;;6.01;40.93;93799.25;4993454;28;20037;-76
2022/02/18 08:22:31;;;;;;;1.13;0.90;;;;;;;6.26;39.68;93830.59;4997879;28;20044;-76
2022/02/18 08:24:57;;;;;;;2.15;0.80;;;;;;;6.31;39.33;93814.69;4998789;28;20239;-76
2022/02/18 08:27:22;;;;;;;1.85;0.98;;;;;;;6.38;39.30;93815.13;4998364;28;20524;-76
2022/02/18 08:29:48;;;;;;;3.75;1.20;;;;;;;6.41;39.28;93793.41;4993726;28;20522;-76
2022/02/18 08:32:13;;;;;;;3.60;0.80;;;;;;;6.46;39.22;93818.94;5000412;28;20182;-76
2022/02/18 08:34:38;;;;;;;3.13;1.20;;;;;;;6.59;38.58;93820.88;5000970;28;20431;-77
2022/02/18 08:37:04;;;;;;;2.22;0.80;;;;;;;6.53;38.50;93811.47;5002096;28;20400;-75
2022/02/18 08:39:29;;;;;;;3.03;1.02;;;;;;;6.63;39.20;93821.88;4990649;28;20555;-76
2022/02/18 08:41:55;;;;;;;3.60;1.40;;;;;;;6.66;38.50;93815.22;4996092;28;20673;-76
2022/02/18 08:44:21;;;;;;;5.13;0.90;;;;;;;6.55;38.12;93806.69;4989575;28;20037;-76
2022/02/18 08:46:47;;;;;;;1.05;0.85;;;;;;;6.55;38.31;93795.34;4995706;28;20029;-76
2022/02/18 08:49:13;;;;;;;1.30;0.80;;;;;;;6.67;38.17;93814.94;4996947;28;20084;-76
2022/02/18 08:51:38;;;;;;;0.93;0.88;;;;;;;6.69;38.67;93796.16;4992956;28;20045;-76
2022/02/18 08:54:04;;;;;;;2.42;1.63;;;;;;;6.78;37.63;93795.22;4990462;28;20897;-75
2022/02/18 08:56:30;;;;;;;0.88;0.80;;;;;;;6.96;37.92;93816.59;4993594;28;20375;-76
2022/02/18 08:58:57;;;;;;;2.05;1.45;;;;;;;6.81;38.01;93804.41;4993820;28;20120;-75
2022/02/18 09:01:26;;;;;;;3.45;0.95;;;;;;;6.75;38.22;93795.00;4997328;28;20424;-75
2022/02/18 09:03:51;;;;;;;4.95;1.00;;;;;;;7.14;38.48;93836.94;5000854;28;20030;-75
2022/02/18 09:06:16;;;;;;;1.63;0.90;;;;;;;7.02;36.98;93837.38;4995332;28;20059;-75
2022/02/18 09:08:42;;;;;;;1.77;1.08;;;;;;;7.22;36.66;93846.84;4998742;28;20084;-75
2022/02/18 09:11:07;;;;;;;4.13;1.10;;;;;;;7.17;37.36;93829.19;4990350;28;20038;-74
2022/02/18 09:13:32;;;;;;;4.28;1.25;;;;;;;7.13;37.36;93825.56;4992873;28;20022;-75
2022/02/18 09:15:58;;;;;;;1.10;1.00;;;;;;;7.11;36.69;93829.56;5000844;28;20096;-75
2022/02/18 09:18:23;;;;;;;1.10;0.77;;;;;;;7.17;37.11;93846.94;4993284;28;20045;-75
2022/02/18 09:20:49;;;;;;;0.95;0.73;;;;;;;7.11;36.88;93840.16;4998050;28;20099;-75
2022/02/18 09:23:15;;;;;;;5.07;1.10;;;;;;;7.16;37.04;93832.13;5002871;28;20048;-75
2022/02/18 09:25:41;;;;;;;1.67;1.10;;;;;;;7.26;36.77;93853.13;4999892;28;20116;-75
2022/02/18 09:28:07;;;;;;;1.02;0.80;;;;;;;7.15;35.26;93846.41;5001665;28;20127;-75
2022/02/18 09:30:37;;;;;;;2.25;0.73;;;;;;;6.89;34.79;93816.19;5009756;28;20392;-75
2022/02/18 09:33:03;;;;;;;1.30;0.73;;;;;;;7.05;35.93;93836.00;4998577;28;20041;-74
2022/02/18 09:35:28;;;;;;;1.92;0.80;;;;;;;6.98;35.22;93839.03;4994439;28;20030;-75
2022/02/18 09:37:54;;;;;;;3.25;1.13;;;;;;;6.88;34.41;93809.34;4998572;28;20072;-75
2022/02/18 09:40:20;;;;;;;4.13;0.88;;;;;;;6.97;35.33;93812.88;4993521;28;20037;-74
2022/02/18 09:42:47;;;;;;;2.50;0.85;;;;;;;7.33;35.05;93852.75;4999380;28;20494;-75
2022/02/18 09:45:13;;;;;;;1.58;0.82;;;;;;;7.02;33.48;93841.88;4997440;28;20060;-75
2022/02/18 09:47:42;;;;;;;1.75;0.80;;;;;;;6.83;33.54;93824.22;4997091;28;20374;-75
2022/02/18 09:50:08;;;;;;;2.55;0.80;;;;;;;6.93;33.79;93848.91;4996094;28;20042;-75
2022/02/18 09:52:34;;;;;;;0.95;0.93;;;;;;;6.90;34.58;93846.84;4997563;28;20028;-75
2022/02/18 09:55:00;;;;;;;0.60;0.60;;;;;;;6.78;33.90;93826.16;4996898;28;20181;-75
2022/02/18 09:57:26;;;;;;;0.65;0.65;;;;;;;6.94;32.78;93845.19;4998524;28;20183;-75
2022/02/18 09:59:53;;;;;;;3.13;0.68;;;;;;;6.98;33.41;93862.84;4997496;28;20121;-75
2022/02/18 10:02:19;;;;;;;0.70;0.70;;;;;;;6.88;33.64;93856.94;4999783;28;20057;-75
2022/02/18 10:04:44;;;;;;;1.00;0.85;;;;;;;6.86;33.76;93839.47;5010989;28;20124;-76
2022/02/18 10:07:10;;;;;;;1.38;0.80;;;;;;;6.99;33.33;93837.19;4998645;28;20499;-76
2022/02/18 10:09:36;;;;;;;1.83;0.80;;;;;;;7.29;33.18;93855.16;4997472;28;20125;-74
2022/02/18 10:12:02;;;;;;;1.05;0.70;;;;;;;7.21;32.48;93829.41;5000202;28;20124;-76
2022/02/18 10:14:59;;;;;;;1.85;0.88;;;;;;;7.30;33.19;93839.00;4997105;28;20583;-75
2022/02/18 10:17:45;;;;;;;2.05;0.90;;;;;;;7.15;31.76;93814.69;5010892;28;20120;-74
2022/02/18 10:20:27;;;;;;;1.08;0.90;;;;;;;7.21;32.42;93822.25;4998297;28;20041;-76
2022/02/18 10:22:59;;;;;;;1.65;0.90;;;;;;;7.20;33.08;93788.16;4996781;28;20091;-75
2022/02/18 10:25:28;;;;;;;2.40;0.70;;;;;;;7.28;33.65;93806.78;4997894;28;20026;-75
2022/02/18 10:27:54;;;;;;;1.50;0.77;;;;;;;7.25;33.83;93820.59;4998861;28;20053;-75
2022/02/18 10:30:22;;;;;;;0.95;0.90;;;;;;;7.46;34.89;93814.94;4996255;28;20045;-76
2022/02/18 10:32:54;;;;;;;1.05;1.00;;;;;;;7.21;34.77;93792.38;5001105;28;20037;-75
2022/02/18 10:35:28;;;;;;;2.28;0.70;;;;;;;7.37;34.91;93801.59;4996847;28;20132;-76
2022/02/18 10:37:54;;;;;;;5.35;1.23;;;;;;;7.40;34.89;93806.28;5014774;28;20506;-75
2022/02/18 10:40:20;;;;;;;0.80;0.80;;;;;;;7.25;33.17;93796.78;5001768;28;21403;-76
2022/02/18 10:42:50;;;;;;;1.10;1.00;;;;;;;7.45;33.22;93806.19;5001129;28;20120;-76
2022/02/18 10:45:23;;;;;;;1.33;1.15;;;;;;;7.54;34.00;93798.38;4998087;28;20054;-77
2022/02/18 10:47:51;;;;;;;2.50;0.82;;;;;;;7.44;34.01;93783.47;5001041;28;20042;-77
2022/02/18 10:50:18;;;;;;;0.80;0.80;;;;;;;7.48;34.72;93788.97;5002362;28;20041;-76
2022/02/18 10:53:10;;;;;;;5.15;1.20;;;;;;;7.56;33.96;93791.72;4994429;28;20021;-76
2022/02/18 10:55:48;;;;;;;0.77;0.75;;;;;;;7.65;33.57;93805.81;5001246;28;20491;-76
2022/02/18 10:58:29;;;;;;;1.65;0.75;;;;;;;7.54;32.96;93785.91;5001300;28;20062;-76
2022/02/18 11:01:13;;;;;;;0.90;0.80;;;;;;;7.54;33.97;93806.31;4996122;28;20048;-76
2022/02/18 11:03:40;;;;;;;8.50;1.13;;;;;;;7.43;33.88;93810.22;4998897;28;20523;-76
2022/02/18 11:06:23;;;;;;;0.70;0.70;;;;;;;7.27;33.67;93792.00;5003445;28;20598;-76
2022/02/18 11:08:52;;;;;;;2.17;0.80;;;;;;;7.45;33.35;93792.97;4998329;28;20057;-76
2022/02/18 11:11:18;;;;;;;1.35;0.70;;;;;;;7.64;33.55;93808.75;5000714;28;20141;-76
2022/02/18 11:13:44;;;;;;;1.67;1.00;;;;;;;7.58;32.91;93786.88;4991978;28;20061;-73
2022/02/18 11:16:13;;;;;;;2.00;1.00;;;;;;;7.82;33.15;93792.03;4990821;28;20433;-76
2022/02/18 11:18:40;;;;;;;1.40;0.90;;;;;;;7.79;32.59;93781.22;4997243;28;20266;-75
2022/02/18 11:21:07;;;;;;;1.40;0.80;;;;;;;7.99;32.78;93791.41;4988073;28;20034;-76
2022/02/18 11:23:34;;;;;;;1.63;0.75;;;;;;;7.98;32.98;93803.06;4996449;28;20046;-76
2022/02/18 11:26:00;;;;;;;1.85;0.90;;;;;;;7.56;32.66;93717.59;4992933;28;20170;-77
2022/02/18 11:28:29;;;;;;;3.78;1.00;;;;;;;8.02;32.91;93781.00;4985165;28;20033;-76
2022/02/18 11:30:57;;;;;;;2.05;0.90;;;;;;;8.26;31.20;93801.19;4995029;28;20044;-76
2022/02/18 11:33:50;;;;;;;2.92;0.90;;;;;;;8.15;30.98;93787.38;4989169;28;20073;-77
2022/02/18 11:36:19;;;;;;;3.50;0.80;;;;;;;8.19;31.18;93796.28;4995219;28;20046;-76
2022/02/18 11:38:59;;;;;;;0.80;0.63;;;;;;;8.23;30.40;93793.81;5008139;28;20044;-77